sensor_id;sensor_type;location;lat;lon;timestamp;temperature;humidity
9662;DHT22;24982;52.344;12.990;2022-08-01T00:02:51;21.80;99.90
9662;DHT22;24982;52.344;12.990;2022-08-01T00:08:57;21.70;99.90
9662;DHT22;24982;52.344;12.990;2022-08-01T00:11:59;21.80;99.90
9662;DHT22;24982;52.344;12.990;2022-08-01T00:15:02;21.80;99.90
9662;DHT22;24982;52.344;12.990;2022-08-01T00:18:04;21.80;99.90
9662;DHT22;24982;52.344;12.990;2022-08-01T00:21:06;21.70;99.90
9662;DHT22;24982;52.344;12.990;2022-08-01T00:27:11;21.70;99.90
9662;DHT22;24982;52.344;12.990;2022-08-01T00:30:13;21.60;99.90
9662;DHT22;24982;52.344;12.990;2022-08-01T00:33:15;21.60;99.90
9662;DHT22;24982;52.344;12.990;2022-08-01T00:36:17;21.60;99.90
9662;DHT22;24982;52.344;12.990;2022-08-01T00:39:21;21.50;99.90
9662;DHT22;24982;52.344;12.990;2022-08-01T00:42:23;21.50;99.90
9662;DHT22;24982;52.344;12.990;2022-08-01T00:45:25;21.50;99.90
9662;DHT22;24982;52.344;12.990;2022-08-01T00:48:27;21.50;99.90
9662;DHT22;24982;52.344;12.990;2022-08-01T00:51:29;21.50;99.90
9662;DHT22;24982;52.344;12.990;2022-08-01T00:54:33;21.50;99.90
9662;DHT22;24982;52.344;12.990;2022-08-01T01:00:37;21.50;99.90
9662;DHT22;24982;52.344;12.990;2022-08-01T01:06:48;21.40;99.90
9662;DHT22;24982;52.344;12.990;2022-08-01T01:09:58;21.40;99.90
9662;DHT22;24982;52.344;12.990;2022-08-01T01:13:05;21.30;99.90
9662;DHT22;24982;52.344;12.990;2022-08-01T01:16:11;21.20;99.90
9662;DHT22;24982;52.344;12.990;2022-08-01T01:19:23;21.20;99.90
9662;DHT22;24982;52.344;12.990;2022-08-01T01:22:36;21.10;99.90
9662;DHT22;24982;52.344;12.990;2022-08-01T01:26:01;21.10;99.90
9662;DHT22;24982;52.344;12.990;2022-08-01T01:29:16;21.00;99.90
9662;DHT22;24982;52.344;12.990;2022-08-01T01:32:22;21.00;99.90
9662;DHT22;24982;52.344;12.990;2022-08-01T01:35:27;21.00;99.90
9662;DHT22;24982;52.344;12.990;2022-08-01T01:38:33;20.80;99.90
9662;DHT22;24982;52.344;12.990;2022-08-01T01:41:36;20.80;99.90
9662;DHT22;24982;52.344;12.990;2022-08-01T01:44:41;20.70;99.90
9662;DHT22;24982;52.344;12.990;2022-08-01T01:47:45;20.60;99.90
9662;DHT22;24982;52.344;12.990;2022-08-01T01:50:48;20.60;99.90
9662;DHT22;24982;52.344;12.990;2022-08-01T01:53:53;20.50;99.90
9662;DHT22;24982;52.344;12.990;2022-08-01T01:56:56;20.50;99.90
9662;DHT22;24982;52.344;12.990;2022-08-01T02:00:01;20.40;99.90
9662;DHT22;24982;52.344;12.990;2022-08-01T02:03:08;20.40;99.90
9662;DHT22;24982;52.344;12.990;2022-08-01T02:06:13;20.50;99.90
9662;DHT22;24982;52.344;12.990;2022-08-01T02:09:17;20.50;99.90
9662;DHT22;24982;52.344;12.990;2022-08-01T02:12:20;20.60;99.90
9662;DHT22;24982;52.344;12.990;2022-08-01T02:15:25;20.60;99.90
9662;DHT22;24982;52.344;12.990;2022-08-01T02:18:28;20.60;99.90
9662;DHT22;24982;52.344;12.990;2022-08-01T02:21:32;20.60;99.90
9662;DHT22;24982;52.344;12.990;2022-08-01T02:24:39;20.60;99.90
9662;DHT22;24982;52.344;12.990;2022-08-01T02:27:45;20.50;99.90
9662;DHT22;24982;52.344;12.990;2022-08-01T02:30:50;20.50;99.90
9662;DHT22;24982;52.344;12.990;2022-08-01T02:33:57;20.50;99.90
9662;DHT22;24982;52.344;12.990;2022-08-01T02:37:01;20.50;99.90
9662;DHT22;24982;52.344;12.990;2022-08-01T02:40:06;20.50;99.90
9662;DHT22;24982;52.344;12.990;2022-08-01T02:43:10;20.60;99.90
9662;DHT22;24982;52.344;12.990;2022-08-01T02:46:20;20.60;99.90
9662;DHT22;24982;52.344;12.990;2022-08-01T02:49:23;20.60;99.90
9662;DHT22;24982;52.344;12.990;2022-08-01T02:52:27;20.50;99.90
9662;DHT22;24982;52.344;12.990;2022-08-01T02:55:31;20.50;99.90
9662;DHT22;24982;52.344;12.990;2022-08-01T02:58:35;20.50;99.90
9662;DHT22;24982;52.344;12.990;2022-08-01T03:01:40;20.50;99.90
9662;DHT22;24982;52.344;12.990;2022-08-01T03:04:44;20.40;99.90
9662;DHT22;24982;52.344;12.990;2022-08-01T03:07:48;20.40;99.90
9662;DHT22;24982;52.344;12.990;2022-08-01T03:10:51;20.50;99.90
9662;DHT22;24982;52.344;12.990;2022-08-01T03:13:56;20.50;99.90
9662;DHT22;24982;52.344;12.990;2022-08-01T03:17:02;20.60;99.90
9662;DHT22;24982;52.344;12.990;2022-08-01T03:20:06;20.60;99.90
9662;DHT22;24982;52.344;12.990;2022-08-01T03:23:12;20.60;99.90
9662;DHT22;24982;52.344;12.990;2022-08-01T03:26:14;20.60;99.90
9662;DHT22;24982;52.344;12.990;2022-08-01T03:29:18;20.60;99.90
9662;DHT22;24982;52.344;12.990;2022-08-01T03:32:23;20.60;99.90
9662;DHT22;24982;52.344;12.990;2022-08-01T03:38:32;20.70;99.90
9662;DHT22;24982;52.344;12.990;2022-08-01T03:41:42;20.70;99.90
9662;DHT22;24982;52.344;12.990;2022-08-01T03:44:50;20.80;99.90
9662;DHT22;24982;52.344;12.990;2022-08-01T03:47:58;20.80;99.90
9662;DHT22;24982;52.344;12.990;2022-08-01T03:51:01;20.80;99.90
9662;DHT22;24982;52.344;12.990;2022-08-01T03:54:05;20.90;99.90
9662;DHT22;24982;52.344;12.990;2022-08-01T03:57:09;20.90;99.90
9662;DHT22;24982;52.344;12.990;2022-08-01T04:00:13;20.90;99.90
9662;DHT22;24982;52.344;12.990;2022-08-01T04:03:20;20.90;99.90
9662;DHT22;24982;52.344;12.990;2022-08-01T04:06:22;20.90;99.90
9662;DHT22;24982;52.344;12.990;2022-08-01T04:09:24;20.90;99.90
9662;DHT22;24982;52.344;12.990;2022-08-01T04:12:26;20.90;99.90
9662;DHT22;24982;52.344;12.990;2022-08-01T04:15:28;20.90;99.90
9662;DHT22;24982;52.344;12.990;2022-08-01T04:18:32;21.00;99.90
9662;DHT22;24982;52.344;12.990;2022-08-01T04:21:34;21.00;99.90
9662;DHT22;24982;52.344;12.990;2022-08-01T04:24:37;21.00;99.90
9662;DHT22;24982;52.344;12.990;2022-08-01T04:27:45;21.00;99.90
9662;DHT22;24982;52.344;12.990;2022-08-01T04:30:50;21.00;99.90
9662;DHT22;24982;52.344;12.990;2022-08-01T04:33:55;21.00;99.90
9662;DHT22;24982;52.344;12.990;2022-08-01T04:36:58;21.00;99.90
9662;DHT22;24982;52.344;12.990;2022-08-01T04:40:02;21.10;99.90
9662;DHT22;24982;52.344;12.990;2022-08-01T04:43:05;21.10;99.90
9662;DHT22;24982;52.344;12.990;2022-08-01T04:46:08;21.10;99.90
9662;DHT22;24982;52.344;12.990;2022-08-01T04:49:12;21.20;99.90
9662;DHT22;24982;52.344;12.990;2022-08-01T04:52:16;21.20;99.90
9662;DHT22;24982;52.344;12.990;2022-08-01T04:55:19;21.20;99.90
9662;DHT22;24982;52.344;12.990;2022-08-01T04:58:21;21.20;99.90
9662;DHT22;24982;52.344;12.990;2022-08-01T05:01:23;21.20;99.90
9662;DHT22;24982;52.344;12.990;2022-08-01T05:07:29;21.30;99.90
9662;DHT22;24982;52.344;12.990;2022-08-01T05:10:31;21.40;99.90
9662;DHT22;24982;52.344;12.990;2022-08-01T05:13:34;21.40;99.90
9662;DHT22;24982;52.344;12.990;2022-08-01T05:16:36;21.40;99.90
9662;DHT22;24982;52.344;12.990;2022-08-01T05:19:40;21.40;99.90
9662;DHT22;24982;52.344;12.990;2022-08-01T05:22:43;21.40;99.90
9662;DHT22;24982;52.344;12.990;2022-08-01T05:25:45;21.40;99.90
9662;DHT22;24982;52.344;12.990;2022-08-01T05:28:47;21.50;99.90
9662;DHT22;24982;52.344;12.990;2022-08-01T05:31:49;21.50;99.90
9662;DHT22;24982;52.344;12.990;2022-08-01T05:34:53;21.50;99.90
9662;DHT22;24982;52.344;12.990;2022-08-01T05:37:55;21.50;99.90
9662;DHT22;24982;52.344;12.990;2022-08-01T05:40:57;21.50;99.90
9662;DHT22;24982;52.344;12.990;2022-08-01T05:43:59;21.60;99.90
9662;DHT22;24982;52.344;12.990;2022-08-01T05:47:01;21.70;99.90
9662;DHT22;24982;52.344;12.990;2022-08-01T05:50:05;21.70;99.90
9662;DHT22;24982;52.344;12.990;2022-08-01T05:53:07;21.60;99.90
9662;DHT22;24982;52.344;12.990;2022-08-01T05:56:09;21.50;99.90
9662;DHT22;24982;52.344;12.990;2022-08-01T05:59:11;21.40;99.90
9662;DHT22;24982;52.344;12.990;2022-08-01T06:02:13;21.30;99.90
9662;DHT22;24982;52.344;12.990;2022-08-01T06:05:17;21.20;99.90
9662;DHT22;24982;52.344;12.990;2022-08-01T06:08:19;21.20;99.90
9662;DHT22;24982;52.344;12.990;2022-08-01T06:11:21;21.20;99.90
9662;DHT22;24982;52.344;12.990;2022-08-01T06:14:23;21.20;99.90
9662;DHT22;24982;52.344;12.990;2022-08-01T06:17:25;21.20;99.90
9662;DHT22;24982;52.344;12.990;2022-08-01T06:20:28;21.20;99.90
9662;DHT22;24982;52.344;12.990;2022-08-01T06:23:30;21.20;99.90
9662;DHT22;24982;52.344;12.990;2022-08-01T06:26:32;21.30;99.90
9662;DHT22;24982;52.344;12.990;2022-08-01T06:29:35;21.30;99.90
9662;DHT22;24982;52.344;12.990;2022-08-01T06:32:37;21.30;99.90
9662;DHT22;24982;52.344;12.990;2022-08-01T06:35:41;21.30;99.90
9662;DHT22;24982;52.344;12.990;2022-08-01T06:41:46;21.30;99.90
9662;DHT22;24982;52.344;12.990;2022-08-01T06:44:48;21.30;99.90
9662;DHT22;24982;52.344;12.990;2022-08-01T06:47:51;21.30;99.90
9662;DHT22;24982;52.344;12.990;2022-08-01T06:50:54;21.30;99.90
9662;DHT22;24982;52.344;12.990;2022-08-01T06:54:09;21.30;99.90
9662;DHT22;24982;52.344;12.990;2022-08-01T06:57:11;21.20;99.90
9662;DHT22;24982;52.344;12.990;2022-08-01T07:00:14;21.20;99.90
9662;DHT22;24982;52.344;12.990;2022-08-01T07:03:17;21.20;99.90
9662;DHT22;24982;52.344;12.990;2022-08-01T07:06:21;21.20;99.90
9662;DHT22;24982;52.344;12.990;2022-08-01T07:09:23;21.30;99.90
9662;DHT22;24982;52.344;12.990;2022-08-01T07:12:25;21.20;99.90
9662;DHT22;24982;52.344;12.990;2022-08-01T07:15:27;21.30;99.90
9662;DHT22;24982;52.344;12.990;2022-08-01T07:18:29;21.30;99.90
9662;DHT22;24982;52.344;12.990;2022-08-01T07:21:33;21.40;99.90
9662;DHT22;24982;52.344;12.990;2022-08-01T07:24:35;21.50;99.90
9662;DHT22;24982;52.344;12.990;2022-08-01T07:27:37;21.70;99.90
9662;DHT22;24982;52.344;12.990;2022-08-01T07:30:39;21.80;99.90
9662;DHT22;24982;52.344;12.990;2022-08-01T07:33:42;21.80;99.90
9662;DHT22;24982;52.344;12.990;2022-08-01T07:36:46;21.70;99.90
9662;DHT22;24982;52.344;12.990;2022-08-01T07:39:48;21.70;99.90
9662;DHT22;24982;52.344;12.990;2022-08-01T07:42:50;21.80;99.90
9662;DHT22;24982;52.344;12.990;2022-08-01T07:45:52;21.90;99.90
9662;DHT22;24982;52.344;12.990;2022-08-01T07:48:54;22.00;99.90
9662;DHT22;24982;52.344;12.990;2022-08-01T07:51:57;22.10;99.90
9662;DHT22;24982;52.344;12.990;2022-08-01T07:54:59;22.20;99.90
9662;DHT22;24982;52.344;12.990;2022-08-01T07:58:01;22.30;99.90
9662;DHT22;24982;52.344;12.990;2022-08-01T08:01:03;22.50;99.90
9662;DHT22;24982;52.344;12.990;2022-08-01T08:04:05;22.70;99.90
9662;DHT22;24982;52.344;12.990;2022-08-01T08:07:09;22.80;99.90
9662;DHT22;24982;52.344;12.990;2022-08-01T08:10:11;22.70;99.90
9662;DHT22;24982;52.344;12.990;2022-08-01T08:13:13;22.50;99.90
9662;DHT22;24982;52.344;12.990;2022-08-01T08:16:15;22.40;99.90
9662;DHT22;24982;52.344;12.990;2022-08-01T08:19:17;22.40;99.90
9662;DHT22;24982;52.344;12.990;2022-08-01T08:22:20;22.40;99.90
9662;DHT22;24982;52.344;12.990;2022-08-01T08:25:22;22.50;99.90
9662;DHT22;24982;52.344;12.990;2022-08-01T08:28:24;22.60;99.90
9662;DHT22;24982;52.344;12.990;2022-08-01T08:31:26;22.60;99.90
9662;DHT22;24982;52.344;12.990;2022-08-01T08:34:29;22.60;99.90
9662;DHT22;24982;52.344;12.990;2022-08-01T08:37:32;22.50;99.90
9662;DHT22;24982;52.344;12.990;2022-08-01T08:40:36;22.40;99.90
9662;DHT22;24982;52.344;12.990;2022-08-01T08:43:38;22.30;99.90
9662;DHT22;24982;52.344;12.990;2022-08-01T08:46:42;22.20;99.90
9662;DHT22;24982;52.344;12.990;2022-08-01T08:49:44;22.20;99.90
9662;DHT22;24982;52.344;12.990;2022-08-01T08:52:48;22.20;99.90
9662;DHT22;24982;52.344;12.990;2022-08-01T08:55:51;22.30;99.90
9662;DHT22;24982;52.344;12.990;2022-08-01T08:58:53;22.30;99.90
9662;DHT22;24982;52.344;12.990;2022-08-01T09:01:56;22.30;99.90
9662;DHT22;24982;52.344;12.990;2022-08-01T09:04:58;22.40;99.90
9662;DHT22;24982;52.344;12.990;2022-08-01T09:08:01;22.40;99.90
9662;DHT22;24982;52.344;12.990;2022-08-01T09:11:04;22.40;99.90
9662;DHT22;24982;52.344;12.990;2022-08-01T09:14:09;22.40;99.90
9662;DHT22;24982;52.344;12.990;2022-08-01T09:17:11;22.40;99.90
9662;DHT22;24982;52.344;12.990;2022-08-01T09:20:22;22.40;99.90
9662;DHT22;24982;52.344;12.990;2022-08-01T09:23:33;22.40;99.90
9662;DHT22;24982;52.344;12.990;2022-08-01T09:26:35;22.50;99.90
9662;DHT22;24982;52.344;12.990;2022-08-01T09:29:37;22.60;99.90
9662;DHT22;24982;52.344;12.990;2022-08-01T09:32:56;22.70;99.90
9662;DHT22;24982;52.344;12.990;2022-08-01T09:35:58;22.70;99.90
9662;DHT22;24982;52.344;12.990;2022-08-01T09:39:11;22.60;99.90
9662;DHT22;24982;52.344;12.990;2022-08-01T09:42:22;22.50;99.90
9662;DHT22;24982;52.344;12.990;2022-08-01T09:45:31;22.40;99.90
9662;DHT22;24982;52.344;12.990;2022-08-01T09:48:33;22.30;99.90
9662;DHT22;24982;52.344;12.990;2022-08-01T09:51:39;22.30;99.90
9662;DHT22;24982;52.344;12.990;2022-08-01T09:54:51;22.20;99.90
9662;DHT22;24982;52.344;12.990;2022-08-01T09:57:55;22.10;99.90
9662;DHT22;24982;52.344;12.990;2022-08-01T10:00:59;22.10;99.90
9662;DHT22;24982;52.344;12.990;2022-08-01T10:04:09;22.10;99.90
9662;DHT22;24982;52.344;12.990;2022-08-01T10:07:11;22.20;99.90
9662;DHT22;24982;52.344;12.990;2022-08-01T10:10:17;22.30;99.90
9662;DHT22;24982;52.344;12.990;2022-08-01T10:13:19;22.40;99.90
9662;DHT22;24982;52.344;12.990;2022-08-01T10:16:21;22.50;99.90
9662;DHT22;24982;52.344;12.990;2022-08-01T10:22:27;22.90;99.90
9662;DHT22;24982;52.344;12.990;2022-08-01T10:25:40;23.50;99.90
9662;DHT22;24982;52.344;12.990;2022-08-01T10:28:44;23.70;99.90
9662;DHT22;24982;52.344;12.990;2022-08-01T10:31:49;23.60;99.90
9662;DHT22;24982;52.344;12.990;2022-08-01T10:34:51;23.40;99.90
9662;DHT22;24982;52.344;12.990;2022-08-01T10:37:54;23.30;99.90
9662;DHT22;24982;52.344;12.990;2022-08-01T10:41:02;23.10;99.90
9662;DHT22;24982;52.344;12.990;2022-08-01T10:44:06;22.90;99.90
9662;DHT22;24982;52.344;12.990;2022-08-01T10:47:10;22.90;99.90
9662;DHT22;24982;52.344;12.990;2022-08-01T10:50:17;22.90;99.90
9662;DHT22;24982;52.344;12.990;2022-08-01T10:53:22;23.00;99.90
9662;DHT22;24982;52.344;12.990;2022-08-01T10:56:38;23.10;99.90
9662;DHT22;24982;52.344;12.990;2022-08-01T10:59:49;23.10;99.90
9662;DHT22;24982;52.344;12.990;2022-08-01T11:02:58;23.00;99.90
9662;DHT22;24982;52.344;12.990;2022-08-01T11:06:02;22.90;99.90
9662;DHT22;24982;52.344;12.990;2022-08-01T11:09:15;22.90;99.90
9662;DHT22;24982;52.344;12.990;2022-08-01T11:12:37;22.90;99.90
9662;DHT22;24982;52.344;12.990;2022-08-01T11:15:40;22.90;99.90
9662;DHT22;24982;52.344;12.990;2022-08-01T11:18:50;22.90;99.90
9662;DHT22;24982;52.344;12.990;2022-08-01T11:21:59;22.90;99.90
9662;DHT22;24982;52.344;12.990;2022-08-01T11:25:03;22.90;99.90
9662;DHT22;24982;52.344;12.990;2022-08-01T11:28:20;23.00;99.90
9662;DHT22;24982;52.344;12.990;2022-08-01T11:31:27;23.20;99.90
9662;DHT22;24982;52.344;12.990;2022-08-01T11:34:54;23.60;99.90
9662;DHT22;24982;52.344;12.990;2022-08-01T11:37:56;23.80;99.90
9662;DHT22;24982;52.344;12.990;2022-08-01T11:41:23;24.80;99.90
9662;DHT22;24982;52.344;12.990;2022-08-01T11:44:26;25.60;99.90
9662;DHT22;24982;52.344;12.990;2022-08-01T11:47:45;25.70;99.90
9662;DHT22;24982;52.344;12.990;2022-08-01T11:50:50;25.80;99.90
9662;DHT22;24982;52.344;12.990;2022-08-01T11:53:52;25.90;99.90
9662;DHT22;24982;52.344;12.990;2022-08-01T11:56:57;26.00;99.90
9662;DHT22;24982;52.344;12.990;2022-08-01T12:00:00;26.10;99.90
9662;DHT22;24982;52.344;12.990;2022-08-01T12:03:12;26.60;99.90
9662;DHT22;24982;52.344;12.990;2022-08-01T12:06:27;27.60;99.90
9662;DHT22;24982;52.344;12.990;2022-08-01T12:09:29;28.50;99.90
9662;DHT22;24982;52.344;12.990;2022-08-01T12:12:33;28.40;99.90
9662;DHT22;24982;52.344;12.990;2022-08-01T12:15:37;28.10;99.90
9662;DHT22;24982;52.344;12.990;2022-08-01T12:18:40;27.70;99.90
9662;DHT22;24982;52.344;12.990;2022-08-01T12:21:42;27.20;99.90
9662;DHT22;24982;52.344;12.990;2022-08-01T12:24:44;26.70;99.90
9662;DHT22;24982;52.344;12.990;2022-08-01T12:27:49;26.50;99.90
9662;DHT22;24982;52.344;12.990;2022-08-01T12:30:51;26.30;99.90
9662;DHT22;24982;52.344;12.990;2022-08-01T12:33:54;26.20;99.90
9662;DHT22;24982;52.344;12.990;2022-08-01T12:36:57;25.90;99.90
9662;DHT22;24982;52.344;12.990;2022-08-01T12:40:00;25.80;99.90
9662;DHT22;24982;52.344;12.990;2022-08-01T12:43:06;25.60;99.90
9662;DHT22;24982;52.344;12.990;2022-08-01T12:46:08;25.50;99.90
9662;DHT22;24982;52.344;12.990;2022-08-01T12:49:16;25.50;99.90
9662;DHT22;24982;52.344;12.990;2022-08-01T12:52:19;25.50;99.90
9662;DHT22;24982;52.344;12.990;2022-08-01T12:55:24;25.40;99.90
9662;DHT22;24982;52.344;12.990;2022-08-01T12:58:32;25.40;99.90
9662;DHT22;24982;52.344;12.990;2022-08-01T13:01:35;25.30;99.90
9662;DHT22;24982;52.344;12.990;2022-08-01T13:04:49;25.30;99.90
9662;DHT22;24982;52.344;12.990;2022-08-01T13:07:52;25.40;99.90
9662;DHT22;24982;52.344;12.990;2022-08-01T13:11:00;25.50;99.90
9662;DHT22;24982;52.344;12.990;2022-08-01T13:14:04;25.70;99.90
9662;DHT22;24982;52.344;12.990;2022-08-01T13:17:06;25.70;99.90
9662;DHT22;24982;52.344;12.990;2022-08-01T13:20:09;25.60;99.90
9662;DHT22;24982;52.344;12.990;2022-08-01T13:23:13;25.60;99.90
9662;DHT22;24982;52.344;12.990;2022-08-01T13:26:15;25.80;99.90
9662;DHT22;24982;52.344;12.990;2022-08-01T13:29:20;25.90;99.90
9662;DHT22;24982;52.344;12.990;2022-08-01T13:32:23;25.80;99.90
9662;DHT22;24982;52.344;12.990;2022-08-01T13:35:25;25.80;99.90
9662;DHT22;24982;52.344;12.990;2022-08-01T13:38:27;25.80;99.90
9662;DHT22;24982;52.344;12.990;2022-08-01T13:41:47;25.80;99.90
9662;DHT22;24982;52.344;12.990;2022-08-01T13:44:50;25.80;99.90
9662;DHT22;24982;52.344;12.990;2022-08-01T13:47:52;25.90;99.90
9662;DHT22;24982;52.344;12.990;2022-08-01T13:50:55;26.00;99.90
9662;DHT22;24982;52.344;12.990;2022-08-01T13:53:57;26.00;99.90
9662;DHT22;24982;52.344;12.990;2022-08-01T13:56:59;26.00;99.90
9662;DHT22;24982;52.344;12.990;2022-08-01T14:00:04;25.90;99.90
9662;DHT22;24982;52.344;12.990;2022-08-01T14:03:13;25.80;99.90
9662;DHT22;24982;52.344;12.990;2022-08-01T14:06:15;25.70;99.90
9662;DHT22;24982;52.344;12.990;2022-08-01T14:09:17;25.60;99.90
9662;DHT22;24982;52.344;12.990;2022-08-01T14:12:20;25.40;99.90
9662;DHT22;24982;52.344;12.990;2022-08-01T14:15:23;25.40;99.90
9662;DHT22;24982;52.344;12.990;2022-08-01T14:18:25;25.40;99.90
9662;DHT22;24982;52.344;12.990;2022-08-01T14:21:27;25.30;99.90
9662;DHT22;24982;52.344;12.990;2022-08-01T14:24:29;25.20;99.90
9662;DHT22;24982;52.344;12.990;2022-08-01T14:27:31;25.10;99.90
9662;DHT22;24982;52.344;12.990;2022-08-01T14:30:38;25.00;99.90
9662;DHT22;24982;52.344;12.990;2022-08-01T14:33:41;24.90;99.90
9662;DHT22;24982;52.344;12.990;2022-08-01T14:36:43;25.00;99.90
9662;DHT22;24982;52.344;12.990;2022-08-01T14:39:45;25.00;99.90
9662;DHT22;24982;52.344;12.990;2022-08-01T14:42:47;25.00;99.90
9662;DHT22;24982;52.344;12.990;2022-08-01T14:45:51;25.10;99.90
9662;DHT22;24982;52.344;12.990;2022-08-01T14:48:55;25.20;99.90
9662;DHT22;24982;52.344;12.990;2022-08-01T14:51:57;25.30;99.90
9662;DHT22;24982;52.344;12.990;2022-08-01T14:54:59;25.50;99.90
9662;DHT22;24982;52.344;12.990;2022-08-01T14:58:01;25.70;99.90
9662;DHT22;24982;52.344;12.990;2022-08-01T15:01:04;25.90;99.90
9662;DHT22;24982;52.344;12.990;2022-08-01T15:04:06;26.00;99.90
9662;DHT22;24982;52.344;12.990;2022-08-01T15:07:08;26.10;99.90
9662;DHT22;24982;52.344;12.990;2022-08-01T15:10:10;26.30;99.90
9662;DHT22;24982;52.344;12.990;2022-08-01T15:13:12;26.40;99.90
9662;DHT22;24982;52.344;12.990;2022-08-01T15:16:16;26.40;99.90
9662;DHT22;24982;52.344;12.990;2022-08-01T15:19:18;26.40;99.90
9662;DHT22;24982;52.344;12.990;2022-08-01T15:22:20;26.50;99.90
9662;DHT22;24982;52.344;12.990;2022-08-01T15:25:23;26.50;99.90
9662;DHT22;24982;52.344;12.990;2022-08-01T15:28:25;26.40;99.90
9662;DHT22;24982;52.344;12.990;2022-08-01T15:31:28;26.30;99.90
9662;DHT22;24982;52.344;12.990;2022-08-01T15:34:31;26.20;99.90
9662;DHT22;24982;52.344;12.990;2022-08-01T15:37:33;26.20;99.90
9662;DHT22;24982;52.344;12.990;2022-08-01T15:40:35;26.00;99.90
9662;DHT22;24982;52.344;12.990;2022-08-01T15:43:38;25.90;99.90
9662;DHT22;24982;52.344;12.990;2022-08-01T15:46:41;25.90;99.90
9662;DHT22;24982;52.344;12.990;2022-08-01T15:49:43;25.80;99.90
9662;DHT22;24982;52.344;12.990;2022-08-01T15:52:46;25.80;99.90
9662;DHT22;24982;52.344;12.990;2022-08-01T15:55:48;25.80;99.90
9662;DHT22;24982;52.344;12.990;2022-08-01T15:58:50;25.60;99.90
9662;DHT22;24982;52.344;12.990;2022-08-01T16:01:53;25.50;99.90
9662;DHT22;24982;52.344;12.990;2022-08-01T16:04:55;25.40;99.90
9662;DHT22;24982;52.344;12.990;2022-08-01T16:07:57;25.40;99.90
9662;DHT22;24982;52.344;12.990;2022-08-01T16:10:59;25.30;99.90
9662;DHT22;24982;52.344;12.990;2022-08-01T16:14:02;25.30;99.90
9662;DHT22;24982;52.344;12.990;2022-08-01T16:17:05;25.20;99.90
9662;DHT22;24982;52.344;12.990;2022-08-01T16:20:08;25.20;99.90
9662;DHT22;24982;52.344;12.990;2022-08-01T16:23:11;25.20;99.90
9662;DHT22;24982;52.344;12.990;2022-08-01T16:26:13;25.20;99.90
9662;DHT22;24982;52.344;12.990;2022-08-01T16:29:15;25.20;99.90
9662;DHT22;24982;52.344;12.990;2022-08-01T16:32:18;25.10;99.90
9662;DHT22;24982;52.344;12.990;2022-08-01T16:35:20;25.10;99.90
9662;DHT22;24982;52.344;12.990;2022-08-01T16:38:22;25.10;99.90
9662;DHT22;24982;52.344;12.990;2022-08-01T16:41:24;25.00;99.90
9662;DHT22;24982;52.344;12.990;2022-08-01T16:44:26;25.00;99.90
9662;DHT22;24982;52.344;12.990;2022-08-01T16:47:30;25.00;99.90
9662;DHT22;24982;52.344;12.990;2022-08-01T16:50:31;25.00;99.90
9662;DHT22;24982;52.344;12.990;2022-08-01T16:53:33;24.90;99.90
9662;DHT22;24982;52.344;12.990;2022-08-01T16:56:36;24.90;99.90
9662;DHT22;24982;52.344;12.990;2022-08-01T16:59:38;24.80;99.90
9662;DHT22;24982;52.344;12.990;2022-08-01T17:02:41;24.70;99.90
9662;DHT22;24982;52.344;12.990;2022-08-01T17:05:45;24.60;99.90
9662;DHT22;24982;52.344;12.990;2022-08-01T17:08:47;24.50;99.90
9662;DHT22;24982;52.344;12.990;2022-08-01T17:11:49;24.40;99.90
9662;DHT22;24982;52.344;12.990;2022-08-01T17:14:51;24.50;99.90
9662;DHT22;24982;52.344;12.990;2022-08-01T17:17:55;24.40;99.90
9662;DHT22;24982;52.344;12.990;2022-08-01T17:20:57;24.40;99.90
9662;DHT22;24982;52.344;12.990;2022-08-01T17:24:00;24.30;99.90
9662;DHT22;24982;52.344;12.990;2022-08-01T17:27:02;24.20;99.90
9662;DHT22;24982;52.344;12.990;2022-08-01T17:30:05;24.20;99.90
9662;DHT22;24982;52.344;12.990;2022-08-01T17:33:09;24.70;99.90
9662;DHT22;24982;52.344;12.990;2022-08-01T17:36:11;24.00;99.90
9662;DHT22;24982;52.344;12.990;2022-08-01T17:39:13;24.00;99.90
9662;DHT22;24982;52.344;12.990;2022-08-01T17:42:15;24.00;99.90
9662;DHT22;24982;52.344;12.990;2022-08-01T17:45:17;23.90;99.90
9662;DHT22;24982;52.344;12.990;2022-08-01T17:48:20;23.70;99.90
9662;DHT22;24982;52.344;12.990;2022-08-01T17:51:23;23.70;99.90
9662;DHT22;24982;52.344;12.990;2022-08-01T17:54:25;23.60;99.90
9662;DHT22;24982;52.344;12.990;2022-08-01T17:57:27;23.50;99.90
9662;DHT22;24982;52.344;12.990;2022-08-01T18:00:30;23.50;99.90
9662;DHT22;24982;52.344;12.990;2022-08-01T18:03:35;23.40;99.90
9662;DHT22;24982;52.344;12.990;2022-08-01T18:06:37;23.40;99.90
9662;DHT22;24982;52.344;12.990;2022-08-01T18:09:39;23.30;99.90
9662;DHT22;24982;52.344;12.990;2022-08-01T18:12:41;23.20;99.90
9662;DHT22;24982;52.344;12.990;2022-08-01T18:15:43;23.20;99.90
9662;DHT22;24982;52.344;12.990;2022-08-01T18:18:47;23.20;99.90
9662;DHT22;24982;52.344;12.990;2022-08-01T18:21:50;23.10;99.90
9662;DHT22;24982;52.344;12.990;2022-08-01T18:24:52;23.10;99.90
9662;DHT22;24982;52.344;12.990;2022-08-01T18:27:54;23.00;99.90
9662;DHT22;24982;52.344;12.990;2022-08-01T18:30:56;23.00;99.90
9662;DHT22;24982;52.344;12.990;2022-08-01T18:34:00;23.00;99.90
9662;DHT22;24982;52.344;12.990;2022-08-01T18:37:02;23.00;99.90
9662;DHT22;24982;52.344;12.990;2022-08-01T18:40:05;22.90;99.90
9662;DHT22;24982;52.344;12.990;2022-08-01T18:43:07;22.80;99.90
9662;DHT22;24982;52.344;12.990;2022-08-01T18:46:09;22.80;99.90
9662;DHT22;24982;52.344;12.990;2022-08-01T18:49:12;22.70;99.90
9662;DHT22;24982;52.344;12.990;2022-08-01T18:52:14;22.60;99.90
9662;DHT22;24982;52.344;12.990;2022-08-01T18:55:17;22.60;99.90
9662;DHT22;24982;52.344;12.990;2022-08-01T18:58:19;22.50;99.90
9662;DHT22;24982;52.344;12.990;2022-08-01T19:01:21;22.40;99.90
9662;DHT22;24982;52.344;12.990;2022-08-01T19:04:25;22.40;99.90
9662;DHT22;24982;52.344;12.990;2022-08-01T19:07:27;22.30;99.90
9662;DHT22;24982;52.344;12.990;2022-08-01T19:10:29;22.20;99.90
9662;DHT22;24982;52.344;12.990;2022-08-01T19:13:31;22.10;99.90
9662;DHT22;24982;52.344;12.990;2022-08-01T19:16:34;22.10;99.90
9662;DHT22;24982;52.344;12.990;2022-08-01T19:19:37;22.00;99.90
9662;DHT22;24982;52.344;12.990;2022-08-01T19:22:39;21.90;99.90
9662;DHT22;24982;52.344;12.990;2022-08-01T19:25:41;21.80;99.90
9662;DHT22;24982;52.344;12.990;2022-08-01T19:28:45;21.70;99.90
9662;DHT22;24982;52.344;12.990;2022-08-01T19:31:48;21.60;99.90
9662;DHT22;24982;52.344;12.990;2022-08-01T19:34:59;21.50;99.90
9662;DHT22;24982;52.344;12.990;2022-08-01T19:38:03;21.40;99.90
9662;DHT22;24982;52.344;12.990;2022-08-01T19:41:06;21.40;99.90
9662;DHT22;24982;52.344;12.990;2022-08-01T19:44:11;21.30;99.90
9662;DHT22;24982;52.344;12.990;2022-08-01T19:47:14;21.30;99.90